Time;durP1;ratioP1;P1;durP2;ratioP2;P2;SDS_P1;SDS_P2;PMS_P1;PMS_P2;Temp;Humidity;BMP_temperature;BMP_pressure;BME280_temperature;BME280_humidity;BME280_pressure;Samples;Min_cycle;Max_cycle;Signal;HPM_P1;HPM_P2
2023/04/26 01:10:21;;;;;;;0.40;0.40;;;;;;;;;;7397665;19;20140;-87
2023/04/26 01:12:48;;;;;;;0.30;0.30;;;;;;;;;;7393819;19;20137;-89
2023/04/26 01:15:15;;;;;;;0.40;0.40;;;;;;;;;;7394446;19;20153;-89
2023/04/26 01:17:45;;;;;;;0.30;0.30;;;;;;;;;;7396228;19;20150;-89
2023/04/26 01:20:12;;;;;;;0.30;0.30;;;;;;;;;;7395475;19;20234;-89
2023/04/26 01:22:40;;;;;;;0.30;0.30;;;;;;;;;;7395326;19;20161;-86
2023/04/26 01:25:10;;;;;;;0.30;0.30;;;;;;;;;;7394299;19;20145;-89
2023/04/26 01:27:37;;;;;;;0.50;0.50;;;;;;;;;;7395469;19;20137;-87
2023/04/26 01:30:05;;;;;;;1.33;0.87;;;;;;;;;;7395904;19;20125;-90
2023/04/26 01:32:31;;;;;;;0.30;0.30;;;;;;;;;;7394347;19;20153;-86
2023/04/26 01:34:59;;;;;;;0.30;0.30;;;;;;;;;;7394424;19;20153;-88
2023/04/26 01:37:26;;;;;;;0.30;0.30;;;;;;;;;;7396281;19;20158;-86
2023/04/26 01:39:52;;;;;;;0.30;0.30;;;;;;;;;;7396923;19;20145;-86
2023/04/26 01:42:19;;;;;;;0.30;0.30;;;;;;;;;;7396181;19;20132;-88
2023/04/26 01:44:45;;;;;;;0.20;0.20;;;;;;;;;;7393789;19;20149;-86
2023/04/26 01:47:12;;;;;;;6.90;0.77;;;;;;;;;;7395723;19;20144;-89
2023/04/26 01:49:40;;;;;;;0.30;0.30;;;;;;;;;;7396085;19;20165;-87
2023/04/26 01:52:07;;;;;;;0.30;0.30;;;;;;;;;;7396418;19;20137;-86
2023/04/26 01:54:33;;;;;;;0.40;0.40;;;;;;;;;;7393333;19;20188;-89
2023/04/26 01:57:01;;;;;;;0.40;0.40;;;;;;;;;;7396376;19;20137;-85
2023/04/26 01:59:28;;;;;;;0.37;0.37;;;;;;;;;;7394020;19;20756;-91
2023/04/26 02:01:54;;;;;;;0.30;0.30;;;;;;;;;;7394181;19;20137;-90
2023/04/26 02:04:22;;;;;;;0.40;0.40;;;;;;;;;;7391690;19;20536;-91
2023/04/26 02:06:49;;;;;;;0.50;0.50;;;;;;;;;;7393263;19;20121;-90
2023/04/26 02:09:17;;;;;;;0.30;0.30;;;;;;;;;;7391758;19;20140;-89
2023/04/26 02:11:44;;;;;;;0.23;0.23;;;;;;;;;;7393948;19;20135;-90
2023/04/26 02:14:10;;;;;;;0.30;0.30;;;;;;;;;;7393328;19;20271;-89
2023/04/26 02:16:38;;;;;;;0.30;0.30;;;;;;;;;;7392476;19;20117;-87
2023/04/26 02:19:09;;;;;;;0.30;0.30;;;;;;;;;;7392146;19;20220;-89
2023/04/26 02:21:53;;;;;;;0.30;0.30;;;;;;;;;;7391592;19;20192;-89
2023/04/26 02:24:20;;;;;;;0.40;0.40;;;;;;;;;;7390182;19;20500;-90
2023/04/26 02:26:47;;;;;;;0.30;0.30;;;;;;;;;;7392869;19;20157;-87
2023/04/26 02:29:13;;;;;;;0.30;0.30;;;;;;;;;;7392380;19;20588;-89
2023/04/26 02:31:40;;;;;;;0.27;0.27;;;;;;;;;;7390050;19;20157;-87
2023/04/26 02:34:07;;;;;;;0.30;0.30;;;;;;;;;;7391842;19;20171;-89
2023/04/26 02:36:34;;;;;;;0.30;0.30;;;;;;;;;;7391738;19;20161;-91
2023/04/26 02:39:01;;;;;;;0.30;0.30;;;;;;;;;;7390187;19;20469;-90
2023/04/26 02:41:30;;;;;;;0.30;0.30;;;;;;;;;;7389067;19;20161;-89
2023/04/26 02:43:57;;;;;;;0.40;0.40;;;;;;;;;;7389890;19;20173;-90
2023/04/26 02:46:23;;;;;;;0.30;0.30;;;;;;;;;;7391205;19;20129;-90
2023/04/26 02:48:50;;;;;;;0.40;0.40;;;;;;;;;;7390997;19;20132;-90
2023/04/26 02:51:17;;;;;;;0.20;0.20;;;;;;;;;;7391551;19;20137;-91
2023/04/26 02:53:44;;;;;;;0.47;0.47;;;;;;;;;;7388829;19;20175;-89
2023/04/26 02:56:11;;;;;;;0.30;0.30;;;;;;;;;;7388833;19;20141;-87
2023/04/26 02:58:37;;;;;;;0.20;0.20;;;;;;;;;;7391595;19;20137;-87
2023/04/26 03:01:04;;;;;;;0.30;0.30;;;;;;;;;;7391722;19;20168;-90
2023/04/26 03:03:31;;;;;;;0.30;0.30;;;;;;;;;;7391223;19;20547;-89
2023/04/26 03:05:58;;;;;;;0.30;0.30;;;;;;;;;;7390222;19;20126;-90
2023/04/26 03:08:24;;;;;;;0.30;0.30;;;;;;;;;;7389135;19;20166;-90
2023/04/26 03:10:51;;;;;;;0.30;0.30;;;;;;;;;;7390405;19;20471;-91
2023/04/26 03:13:17;;;;;;;0.30;0.30;;;;;;;;;;7390114;19;20137;-89
2023/04/26 03:15:45;;;;;;;0.30;0.30;;;;;;;;;;7390167;19;20610;-90
2023/04/26 03:18:11;;;;;;;0.30;0.30;;;;;;;;;;7401348;19;20141;-91
2023/04/26 03:20:38;;;;;;;0.20;0.20;;;;;;;;;;7401366;19;20141;-89
2023/04/26 03:23:05;;;;;;;0.33;0.33;;;;;;;;;;7391327;19;20138;-90
2023/04/26 03:25:32;;;;;;;0.30;0.30;;;;;;;;;;7389517;19;20141;-90
2023/04/26 03:27:59;;;;;;;0.30;0.30;;;;;;;;;;7390329;19;20137;-87
2023/04/26 03:30:25;;;;;;;0.30;0.30;;;;;;;;;;7395140;19;20179;-90
2023/04/26 03:32:52;;;;;;;0.50;0.50;;;;;;;;;;7395931;19;20129;-90
2023/04/26 03:35:19;;;;;;;0.47;0.47;;;;;;;;;;7395612;19;20152;-89
2023/04/26 03:37:45;;;;;;;0.30;0.30;;;;;;;;;;7398815;19;20141;-89
2023/04/26 03:40:12;;;;;;;0.83;0.83;;;;;;;;;;7398840;19;20129;-88
2023/04/26 03:42:39;;;;;;;0.30;0.30;;;;;;;;;;7399463;19;20137;-89
2023/04/26 03:45:06;;;;;;;0.50;0.50;;;;;;;;;;7396504;19;20178;-90
2023/04/26 03:47:33;;;;;;;0.80;0.80;;;;;;;;;;7398539;19;20126;-87
2023/04/26 03:50:00;;;;;;;0.30;0.30;;;;;;;;;;7398817;19;20148;-88
2023/04/26 03:52:26;;;;;;;0.30;0.30;;;;;;;;;;7398020;19;20598;-89
2023/04/26 03:54:53;;;;;;;0.50;0.50;;;;;;;;;;7395410;19;20499;-89
2023/04/26 03:57:20;;;;;;;0.67;0.60;;;;;;;;;;7398291;19;20137;-89
2023/04/26 03:59:47;;;;;;;0.30;0.30;;;;;;;;;;7397590;19;20125;-88
2023/04/26 04:02:13;;;;;;;0.50;0.50;;;;;;;;;;7397988;19;20129;-89
2023/04/26 04:04:40;;;;;;;0.40;0.40;;;;;;;;;;7395956;19;20492;-89
2023/04/26 04:07:07;;;;;;;0.30;0.30;;;;;;;;;;7397377;19;20450;-89
2023/04/26 04:09:34;;;;;;;0.43;0.43;;;;;;;;;;7396673;19;20141;-89
2023/04/26 04:12:01;;;;;;;0.30;0.30;;;;;;;;;;7397067;19;20137;-89
2023/04/26 04:14:28;;;;;;;0.30;0.30;;;;;;;;;;7395717;19;20149;-90
2023/04/26 04:16:55;;;;;;;0.30;0.30;;;;;;;;;;7397072;19;20161;-88
2023/04/26 04:19:21;;;;;;;0.40;0.40;;;;;;;;;;7393827;19;20129;-87
2023/04/26 04:21:48;;;;;;;0.30;0.30;;;;;;;;;;7395805;19;20165;-89
2023/04/26 04:24:15;;;;;;;0.30;0.30;;;;;;;;;;7394208;19;20176;-90
2023/04/26 04:26:41;;;;;;;0.70;0.70;;;;;;;;;;7393044;19;20141;-89
2023/04/26 04:29:08;;;;;;;0.30;0.30;;;;;;;;;;7395380;19;20510;-90
2023/04/26 04:31:35;;;;;;;0.30;0.30;;;;;;;;;;7395618;19;20593;-89
2023/04/26 04:34:02;;;;;;;0.33;0.33;;;;;;;;;;7394442;19;20149;-90
2023/04/26 04:36:29;;;;;;;0.30;0.30;;;;;;;;;;7395051;19;20133;-89
2023/04/26 04:38:57;;;;;;;0.60;0.57;;;;;;;;;;7395514;19;20133;-89
2023/04/26 04:41:23;;;;;;;0.30;0.30;;;;;;;;;;7393629;19;20162;-90
2023/04/26 04:43:50;;;;;;;0.37;0.37;;;;;;;;;;7394915;19;20137;-90
2023/04/26 04:46:16;;;;;;;0.40;0.40;;;;;;;;;;7395213;19;20171;-89
2023/04/26 04:48:43;;;;;;;0.40;0.40;;;;;;;;;;7395617;19;20142;-89
2023/04/26 04:51:10;;;;;;;0.80;0.80;;;;;;;;;;7395971;19;20151;-88
2023/04/26 04:53:37;;;;;;;0.30;0.30;;;;;;;;;;7395596;19;20190;-89
2023/04/26 04:56:04;;;;;;;2.30;1.40;;;;;;;;;;7394287;19;20161;-91
2023/04/26 04:58:30;;;;;;;0.37;0.37;;;;;;;;;;7394575;19;20134;-89
2023/04/26 05:00:59;;;;;;;0.30;0.30;;;;;;;;;;7394271;19;20161;-89
2023/04/26 05:03:26;;;;;;;0.40;0.40;;;;;;;;;;7393022;19;20161;-90
2023/04/26 05:05:53;;;;;;;0.40;0.40;;;;;;;;;;7394864;19;20133;-89
2023/04/26 05:08:20;;;;;;;0.40;0.40;;;;;;;;;;7392699;19;20160;-91
2023/04/26 05:10:47;;;;;;;0.57;0.57;;;;;;;;;;7393684;19;20136;-92
2023/04/26 05:13:13;;;;;;;0.30;0.30;;;;;;;;;;7393001;19;20149;-89
2023/04/26 05:15:40;;;;;;;0.37;0.37;;;;;;;;;;7391989;19;20516;-91
2023/04/26 05:18:07;;;;;;;0.50;0.50;;;;;;;;;;7393573;19;20146;-88
2023/04/26 05:20:33;;;;;;;0.53;0.53;;;;;;;;;;7391419;19;20231;-90
2023/04/26 05:23:00;;;;;;;0.60;0.60;;;;;;;;;;7393556;19;20146;-88
2023/04/26 05:25:27;;;;;;;0.30;0.30;;;;;;;;;;7390812;19;20174;-89
2023/04/26 05:27:53;;;;;;;0.30;0.30;;;;;;;;;;7409556;19;20154;-90
2023/04/26 05:30:20;;;;;;;0.50;0.50;;;;;;;;;;7403967;19;20134;-89
2023/04/26 05:32:47;;;;;;;0.30;0.30;;;;;;;;;;7394585;19;20125;-88
2023/04/26 05:35:14;;;;;;;0.60;0.60;;;;;;;;;;7390058;19;20152;-89
2023/04/26 05:37:40;;;;;;;0.63;0.63;;;;;;;;;;7391780;19;20167;-90
2023/04/26 05:40:08;;;;;;;0.43;0.43;;;;;;;;;;7394314;19;20144;-89
2023/04/26 05:42:34;;;;;;;2.23;1.00;;;;;;;;;;7394392;19;20133;-86
2023/04/26 05:45:01;;;;;;;0.30;0.30;;;;;;;;;;7393282;19;20169;-89
2023/04/26 05:47:27;;;;;;;0.50;0.50;;;;;;;;;;7392809;19;20137;-86
2023/04/26 05:49:54;;;;;;;0.73;0.73;;;;;;;;;;7394436;19;20470;-88
2023/04/26 05:52:21;;;;;;;0.67;0.67;;;;;;;;;;7393040;19;20602;-89
2023/04/26 05:54:47;;;;;;;1.47;0.70;;;;;;;;;;7392047;19;20489;-88
2023/04/26 05:57:14;;;;;;;0.73;0.73;;;;;;;;;;7393614;19;20152;-89
2023/04/26 05:59:41;;;;;;;0.93;0.93;;;;;;;;;;7394391;19;20137;-89
2023/04/26 06:02:07;;;;;;;0.70;0.70;;;;;;;;;;7393620;19;20161;-87
2023/04/26 06:04:34;;;;;;;0.50;0.50;;;;;;;;;;7393088;19;20153;-88
2023/04/26 06:07:01;;;;;;;0.57;0.57;;;;;;;;;;7392972;19;20158;-89
2023/04/26 06:09:30;;;;;;;0.60;0.60;;;;;;;;;;7390196;19;20554;-89
2023/04/26 06:11:56;;;;;;;0.70;0.70;;;;;;;;;;7393996;19;20145;-87
2023/04/26 06:14:23;;;;;;;1.97;0.80;;;;;;;;;;7391076;19;20164;-87
2023/04/26 06:16:55;;;;;;;2.33;1.20;;;;;;;;;;7391366;19;20208;-89
2023/04/26 06:19:22;;;;;;;2.37;2.17;;;;;;;;;;7391439;19;20141;-89
2023/04/26 06:21:50;;;;;;;0.90;0.90;;;;;;;;;;7392525;19;20137;-90
2023/04/26 06:24:17;;;;;;;1.37;1.27;;;;;;;;;;7392093;19;20605;-89
2023/04/26 06:26:44;;;;;;;1.17;1.07;;;;;;;;;;7393137;19;20499;-89
2023/04/26 06:29:10;;;;;;;0.53;0.53;;;;;;;;;;7393019;19;20129;-88
2023/04/26 06:31:37;;;;;;;1.10;0.97;;;;;;;;;;7393351;19;20160;-89
2023/04/26 06:34:03;;;;;;;1.50;1.43;;;;;;;;;;7392948;19;20263;-89
2023/04/26 06:36:31;;;;;;;0.70;0.70;;;;;;;;;;7391164;19;20137;-87
2023/04/26 06:38:58;;;;;;;0.90;0.90;;;;;;;;;;7393640;19;20129;-89
2023/04/26 06:41:24;;;;;;;0.70;0.70;;;;;;;;;;7393310;19;20145;-89
2023/04/26 06:43:51;;;;;;;1.10;1.10;;;;;;;;;;7393093;19;20177;-89
2023/04/26 06:46:18;;;;;;;0.60;0.60;;;;;;;;;;7391941;19;20613;-87
2023/04/26 06:48:45;;;;;;;1.00;1.00;;;;;;;;;;7394994;19;20118;-86
2023/04/26 06:51:12;;;;;;;1.33;1.23;;;;;;;;;;7393912;19;20670;-88
2023/04/26 06:53:38;;;;;;;0.53;0.53;;;;;;;;;;7393519;19;20173;-88
2023/04/26 06:56:05;;;;;;;1.40;0.73;;;;;;;;;;7391583;19;20163;-89
2023/04/26 06:58:31;;;;;;;0.60;0.60;;;;;;;;;;7391292;19;20168;-87
2023/04/26 07:00:58;;;;;;;1.37;1.27;;;;;;;;;;7393581;19;20141;-88
2023/04/26 07:03:25;;;;;;;2.23;1.27;;;;;;;;;;7392722;19;20169;-87
2023/04/26 07:05:54;;;;;;;0.40;0.40;;;;;;;;;;7396200;19;20137;-88
2023/04/26 07:08:25;;;;;;;0.53;0.53;;;;;;;;;;7400978;19;20137;-88
2023/04/26 07:10:52;;;;;;;2.63;0.90;;;;;;;;;;7400159;19;20141;-88
2023/04/26 07:13:18;;;;;;;1.03;1.03;;;;;;;;;;7398292;19;20140;-88
2023/04/26 07:15:45;;;;;;;1.50;1.40;;;;;;;;;;7397691;19;20175;-88
2023/04/26 07:18:12;;;;;;;1.03;1.03;;;;;;;;;;7401123;19;20176;-87
2023/04/26 07:20:39;;;;;;;0.87;0.87;;;;;;;;;;7397335;19;20137;-87
2023/04/26 07:23:05;;;;;;;1.20;1.20;;;;;;;;;;7400060;19;20536;-86
2023/04/26 07:25:32;;;;;;;0.90;0.90;;;;;;;;;;7398306;19;20142;-87
2023/04/26 07:27:59;;;;;;;1.40;1.30;;;;;;;;;;7407637;19;20180;-87
2023/04/26 07:30:26;;;;;;;0.87;0.87;;;;;;;;;;7410750;19;20162;-88
2023/04/26 07:32:53;;;;;;;1.10;1.00;;;;;;;;;;7400955;19;20157;-89
2023/04/26 07:35:19;;;;;;;1.37;1.27;;;;;;;;;;7399137;19;20190;-87
2023/04/26 07:37:46;;;;;;;0.60;0.60;;;;;;;;;;7402663;19;20169;-88
2023/04/26 07:40:13;;;;;;;0.40;0.40;;;;;;;;;;7402872;19;20137;-88
2023/04/26 07:42:40;;;;;;;0.60;0.60;;;;;;;;;;7402944;19;20137;-88
2023/04/26 07:45:08;;;;;;;0.93;0.90;;;;;;;;;;7399464;19;20172;-88
2023/04/26 07:47:34;;;;;;;0.40;0.40;;;;;;;;;;7402418;19;20141;-86
2023/04/26 07:50:01;;;;;;;1.20;1.10;;;;;;;;;;7399048;19;20201;-87
2023/04/26 07:52:28;;;;;;;0.60;0.60;;;;;;;;;;7401639;19;20137;-86
2023/04/26 07:54:54;;;;;;;0.57;0.57;;;;;;;;;;7398203;19;20504;-87
2023/04/26 07:57:21;;;;;;;0.93;0.93;;;;;;;;;;7400478;19;20613;-87
2023/04/26 07:59:48;;;;;;;0.90;0.90;;;;;;;;;;7400824;19;20162;-86
2023/04/26 08:02:15;;;;;;;2.23;1.37;;;;;;;;;;7400608;19;20141;-86
2023/04/26 08:04:48;;;;;;;0.87;0.87;;;;;;;;;;7397357;19;20168;-87
2023/04/26 08:07:15;;;;;;;1.20;1.20;;;;;;;;;;7400756;19;20137;-87
2023/04/26 08:09:42;;;;;;;1.07;1.07;;;;;;;;;;7399889;19;20166;-86
2023/04/26 08:12:10;;;;;;;0.83;0.83;;;;;;;;;;7399351;19;20151;-86
2023/04/26 08:14:37;;;;;;;1.47;1.37;;;;;;;;;;7396670;19;20177;-88
2023/04/26 08:17:05;;;;;;;4.07;1.17;;;;;;;;;;7395279;19;20141;-87
2023/04/26 08:19:33;;;;;;;1.33;1.33;;;;;;;;;;7399613;19;20129;-89
2023/04/26 08:21:59;;;;;;;0.70;0.70;;;;;;;;;;7397098;19;20145;-86
2023/04/26 08:24:26;;;;;;;1.40;1.40;;;;;;;;;;7397472;19;20170;-86
2023/04/26 08:26:53;;;;;;;1.30;1.30;;;;;;;;;;7396826;19;20147;-89
2023/04/26 08:29:22;;;;;;;1.07;1.07;;;;;;;;;;7397261;19;20133;-89
2023/04/26 08:31:48;;;;;;;1.47;0.97;;;;;;;;;;7399214;19;20140;-88
2023/04/26 08:34:15;;;;;;;1.47;1.40;;;;;;;;;;7396998;19;20168;-87
2023/04/26 08:36:42;;;;;;;0.70;0.70;;;;;;;;;;7396173;19;20165;-88
2023/04/26 08:39:11;;;;;;;0.80;0.80;;;;;;;;;;7395439;19;20145;-89
2023/04/26 08:41:43;;;;;;;1.37;1.10;;;;;;;;;;7395578;19;20669;-88
2023/04/26 08:44:10;;;;;;;2.07;1.37;;;;;;;;;;7397073;19;20145;-89
2023/04/26 08:47:05;;;;;;;0.90;0.90;;;;;;;;;;7394998;19;20145;-89
2023/04/26 08:49:44;;;;;;;1.13;1.07;;;;;;;;;;7397963;19;20137;-87
2023/04/26 08:52:15;;;;;;;1.03;1.03;;;;;;;;;;7395630;19;20133;-89
2023/04/26 08:54:43;;;;;;;0.60;0.60;;;;;;;;;;7395804;19;20167;-86
2023/04/26 08:57:10;;;;;;;0.40;0.40;;;;;;;;;;7395852;19;20144;-87
2023/04/26 08:59:38;;;;;;;1.13;1.13;;;;;;;;;;7395835;19;20165;-87
2023/04/26 09:02:05;;;;;;;0.80;0.80;;;;;;;;;;7398710;19;20136;-88
2023/04/26 09:04:32;;;;;;;0.50;0.50;;;;;;;;;;7395902;19;20168;-86
2023/04/26 09:07:01;;;;;;;0.87;0.87;;;;;;;;;;7398660;19;20502;-89
2023/04/26 09:09:28;;;;;;;1.93;1.13;;;;;;;;;;7398979;19;20169;-88
2023/04/26 09:11:56;;;;;;;0.93;0.93;;;;;;;;;;7395195;19;20529;-87
2023/04/26 09:14:23;;;;;;;1.20;0.73;;;;;;;;;;7394752;19;20160;-86
2023/04/26 09:16:51;;;;;;;1.20;1.10;;;;;;;;;;7397523;19;20145;-87
2023/04/26 09:19:29;;;;;;;1.00;0.87;;;;;;;;;;7395764;19;20137;-88
2023/04/26 09:21:56;;;;;;;0.83;0.83;;;;;;;;;;7395884;19;20141;-87
2023/04/26 09:24:23;;;;;;;0.77;0.77;;;;;;;;;;7395973;19;20533;-87
2023/04/26 09:27:02;;;;;;;1.17;1.17;;;;;;;;;;7395399;19;20165;-87
2023/04/26 09:29:30;;;;;;;0.50;0.50;;;;;;;;;;7404440;19;20137;-87
2023/04/26 09:31:57;;;;;;;0.40;0.40;;;;;;;;;;7406045;19;20133;-87
2023/04/26 09:34:24;;;;;;;0.67;0.67;;;;;;;;;;7394726;19;20199;-87
2023/04/26 09:36:51;;;;;;;0.43;0.43;;;;;;;;;;7394838;19;20204;-87
2023/04/26 09:39:30;;;;;;;1.03;1.03;;;;;;;;;;7396517;19;20177;-87
2023/04/26 09:42:00;;;;;;;0.60;0.60;;;;;;;;;;7399710;19;20173;-85
2023/04/26 09:44:28;;;;;;;1.23;1.17;;;;;;;;;;7389768;19;20164;-84
2023/04/26 09:47:02;;;;;;;0.80;0.80;;;;;;;;;;7393241;19;20133;-84
2023/04/26 09:49:43;;;;;;;0.73;0.70;;;;;;;;;;7417225;19;20136;-86
2023/04/26 09:52:10;;;;;;;0.70;0.70;;;;;;;;;;7423146;19;20136;-88
2023/04/26 09:54:48;;;;;;;0.67;0.67;;;;;;;;;;7422541;19;20161;-88
2023/04/26 09:57:16;;;;;;;0.50;0.50;;;;;;;;;;7422041;19;20156;-88
2023/04/26 09:59:46;;;;;;;1.07;1.07;;;;;;;;;;7424477;19;20133;-88
2023/04/26 10:02:26;;;;;;;0.73;0.73;;;;;;;;;;7424286;19;20156;-87
2023/04/26 10:04:54;;;;;;;0.80;0.80;;;;;;;;;;7421593;19;20148;-88
2023/04/26 10:07:24;;;;;;;0.60;0.60;;;;;;;;;;7423760;19;20121;-89
2023/04/26 10:09:52;;;;;;;0.70;0.70;;;;;;;;;;7421615;19;20149;-88
2023/04/26 10:12:19;;;;;;;1.67;1.43;;;;;;;;;;7402684;19;20133;-83
2023/04/26 10:14:46;;;;;;;0.77;0.77;;;;;;;;;;7394228;19;20172;-85
2023/04/26 10:17:13;;;;;;;0.67;0.67;;;;;;;;;;7392421;19;20136;-85
2023/04/26 10:19:45;;;;;;;0.87;0.87;;;;;;;;;;7393285;19;20472;-86
2023/04/26 10:22:26;;;;;;;0.77;0.77;;;;;;;;;;7392056;19;20749;-85
2023/04/26 10:24:53;;;;;;;0.33;0.33;;;;;;;;;;7391417;19;20169;-85
2023/04/26 10:27:42;;;;;;;0.40;0.40;;;;;;;;;;7393298;19;20144;-88
2023/04/26 10:30:11;;;;;;;0.47;0.47;;;;;;;;;;7393200;19;20508;-87
2023/04/26 10:32:56;;;;;;;0.50;0.50;;;;;;;;;;7398024;19;20129;-87
2023/04/26 10:35:24;;;;;;;0.40;0.40;;;;;;;;;;7393783;19;20210;-87
2023/04/26 10:38:00;;;;;;;0.50;0.50;;;;;;;;;;7392292;19;20137;-87
2023/04/26 10:40:40;;;;;;;0.32;0.32;;;;;;;;;;7394851;19;20190;-86
2023/04/26 10:43:07;;;;;;;0.60;0.60;;;;;;;;;;7395496;19;20125;-87
2023/04/26 10:45:34;;;;;;;0.68;0.68;;;;;;;;;;7396766;19;20514;-86
2023/04/26 10:48:31;;;;;;;1.40;0.77;;;;;;;;;;7395165;19;20141;-87
2023/04/26 10:51:01;;;;;;;0.73;0.73;;;;;;;;;;7393474;19;20153;-87
2023/04/26 10:53:33;;;;;;;0.45;0.45;;;;;;;;;;7394523;19;20159;-86
2023/04/26 10:55:59;;;;;;;0.40;0.40;;;;;;;;;;7393456;19;20503;-86
2023/04/26 10:58:39;;;;;;;0.40;0.40;;;;;;;;;;7393284;19;20125;-86
2023/04/26 11:01:08;;;;;;;0.55;0.55;;;;;;;;;;7392581;19;20161;-86
2023/04/26 11:03:35;;;;;;;0.40;0.40;;;;;;;;;;7394396;19;20669;-86
2023/04/26 11:06:08;;;;;;;0.43;0.43;;;;;;;;;;7391222;19;20170;-86
2023/04/26 11:08:35;;;;;;;0.98;0.98;;;;;;;;;;7392678;19;20125;-86
2023/04/26 11:11:02;;;;;;;0.35;0.35;;;;;;;;;;7392724;19;20135;-86
2023/04/26 11:13:33;;;;;;;0.50;0.50;;;;;;;;;;7394583;19;20188;-85
2023/04/26 11:16:02;;;;;;;0.50;0.50;;;;;;;;;;7391437;19;20142;-86
2023/04/26 11:18:30;;;;;;;0.50;0.50;;;;;;;;;;7392468;19;20200;-87
2023/04/26 11:20:57;;;;;;;1.30;0.80;;;;;;;;;;7393133;19;20141;-87
2023/04/26 11:23:27;;;;;;;0.65;0.65;;;;;;;;;;7391631;19;20645;-87
2023/04/26 11:26:04;;;;;;;1.55;1.27;;;;;;;;;;7393904;19;20152;-87
2023/04/26 11:28:35;;;;;;;0.55;0.55;;;;;;;;;;7390750;19;20136;-86
2023/04/26 11:31:03;;;;;;;0.40;0.40;;;;;;;;;;7390938;19;20485;-87
2023/04/26 11:33:30;;;;;;;0.40;0.40;;;;;;;;;;7390241;19;20176;-87
2023/04/26 11:35:57;;;;;;;0.30;0.30;;;;;;;;;;7392620;19;20163;-87
2023/04/26 11:38:25;;;;;;;0.70;0.70;;;;;;;;;;7393845;19;20600;-87
2023/04/26 11:40:57;;;;;;;0.47;0.47;;;;;;;;;;7390085;19;20129;-87
2023/04/26 11:43:33;;;;;;;0.40;0.40;;;;;;;;;;7392961;19;20510;-86
2023/04/26 11:46:00;;;;;;;0.50;0.50;;;;;;;;;;7393385;19;20506;-87
2023/04/26 11:48:28;;;;;;;0.63;0.63;;;;;;;;;;7412016;19;20609;-86
2023/04/26 11:50:59;;;;;;;0.50;0.50;;;;;;;;;;7397358;19;20169;-86
2023/04/26 11:53:40;;;;;;;0.73;0.73;;;;;;;;;;7395235;19;21762;-86
2023/04/26 11:56:16;;;;;;;0.35;0.35;;;;;;;;;;7396271;19;20137;-86
2023/04/26 11:58:50;;;;;;;0.60;0.60;;;;;;;;;;7394048;19;20621;-86
2023/04/26 12:01:29;;;;;;;0.70;0.70;;;;;;;;;;7392409;19;20137;-86
2023/04/26 12:04:01;;;;;;;0.88;0.88;;;;;;;;;;7394269;19;20178;-86
2023/04/26 12:06:41;;;;;;;0.73;0.63;;;;;;;;;;7395430;19;20156;-86
2023/04/26 12:09:10;;;;;;;0.65;0.63;;;;;;;;;;7392632;19;20141;-86
2023/04/26 12:11:37;;;;;;;0.50;0.50;;;;;;;;;;7394991;19;20200;-86
2023/04/26 12:14:04;;;;;;;0.40;0.40;;;;;;;;;;7393167;19;20620;-86
2023/04/26 12:16:31;;;;;;;0.50;0.50;;;;;;;;;;7395537;19;20550;-85
2023/04/26 12:18:58;;;;;;;0.55;0.55;;;;;;;;;;7394845;19;20133;-86
2023/04/26 12:21:26;;;;;;;0.85;0.70;;;;;;;;;;7394483;19;20148;-86
2023/04/26 12:23:56;;;;;;;0.40;0.40;;;;;;;;;;7392996;19;20208;-86
2023/04/26 12:26:47;;;;;;;0.40;0.40;;;;;;;;;;7395852;19;20205;-85
2023/04/26 12:30:02;;;;;;;1.17;1.08;;;;;;;;;;7394275;19;20144;-85
2023/04/26 12:32:29;;;;;;;0.45;0.45;;;;;;;;;;7394185;19;20147;-86
2023/04/26 12:35:37;;;;;;;0.40;0.40;;;;;;;;;;7393171;19;20209;-85
2023/04/26 12:38:07;;;;;;;0.52;0.52;;;;;;;;;;7393219;19;20141;-86
2023/04/26 12:40:33;;;;;;;0.98;0.80;;;;;;;;;;7392595;19;20137;-86
2023/04/26 12:43:00;;;;;;;0.95;0.55;;;;;;;;;;7393583;19;20133;-85
2023/04/26 12:45:27;;;;;;;0.50;0.50;;;;;;;;;;7391043;19;20168;-86
2023/04/26 12:47:54;;;;;;;0.60;0.60;;;;;;;;;;7395214;19;20136;-86
2023/04/26 12:50:21;;;;;;;0.50;0.50;;;;;;;;;;7394425;19;20133;-86
2023/04/26 12:52:48;;;;;;;1.23;0.73;;;;;;;;;;7394807;19;20149;-86
2023/04/26 12:55:15;;;;;;;0.50;0.50;;;;;;;;;;7393116;19;20149;-86
2023/04/26 12:57:43;;;;;;;0.40;0.40;;;;;;;;;;7394070;19;20140;-86
2023/04/26 13:00:12;;;;;;;0.55;0.55;;;;;;;;;;7395285;19;20136;-86
2023/04/26 13:02:39;;;;;;;0.70;0.70;;;;;;;;;;7394129;19;20125;-87
2023/04/26 13:05:07;;;;;;;1.25;0.68;;;;;;;;;;7392292;19;20145;-86
2023/04/26 13:07:35;;;;;;;0.30;0.30;;;;;;;;;;7393686;19;20148;-86
2023/04/26 13:10:03;;;;;;;3.70;0.63;;;;;;;;;;7391985;19;20165;-86
2023/04/26 13:12:30;;;;;;;0.47;0.47;;;;;;;;;;7395603;19;20140;-86
2023/04/26 13:14:56;;;;;;;0.40;0.40;;;;;;;;;;7391262;19;20544;-86
2023/04/26 13:17:24;;;;;;;0.43;0.43;;;;;;;;;;7393921;19;20129;-86
2023/04/26 13:19:51;;;;;;;0.50;0.50;;;;;;;;;;7394516;19;20122;-86
2023/04/26 13:22:19;;;;;;;0.40;0.40;;;;;;;;;;7392701;19;20125;-86
2023/04/26 13:24:45;;;;;;;0.40;0.40;;;;;;;;;;7392839;19;20643;-86
2023/04/26 13:27:12;;;;;;;0.40;0.40;;;;;;;;;;7394488;19;20141;-86
2023/04/26 13:29:39;;;;;;;0.60;0.60;;;;;;;;;;7394074;19;20160;-87
2023/04/26 13:32:07;;;;;;;0.45;0.45;;;;;;;;;;7393779;19;20848;-87
2023/04/26 13:34:34;;;;;;;0.55;0.55;;;;;;;;;;7391108;19;20168;-86
2023/04/26 13:37:02;;;;;;;0.35;0.35;;;;;;;;;;7393619;19;20169;-86
2023/04/26 13:39:29;;;;;;;0.52;0.52;;;;;;;;;;7392180;19;20137;-86
2023/04/26 13:41:58;;;;;;;0.60;0.60;;;;;;;;;;7393888;19;20133;-86
2023/04/26 13:44:25;;;;;;;0.50;0.50;;;;;;;;;;7392921;19;20526;-86
2023/04/26 13:46:54;;;;;;;0.55;0.55;;;;;;;;;;7409008;19;20121;-86
2023/04/26 13:49:21;;;;;;;0.30;0.30;;;;;;;;;;7403709;19;20152;-86
2023/04/26 13:51:48;;;;;;;0.38;0.38;;;;;;;;;;7395280;19;20141;-85
2023/04/26 13:54:16;;;;;;;0.82;0.82;;;;;;;;;;7391199;19;20157;-86
2023/04/26 13:56:42;;;;;;;0.80;0.80;;;;;;;;;;7392388;19;20474;-86
2023/04/26 13:59:09;;;;;;;0.38;0.38;;;;;;;;;;7393247;19;20129;-86
2023/04/26 14:01:35;;;;;;;0.57;0.57;;;;;;;;;;7393127;19;20117;-86
2023/04/26 14:04:03;;;;;;;0.43;0.43;;;;;;;;;;7392215;19;20842;-86
2023/04/26 14:06:31;;;;;;;0.40;0.40;;;;;;;;;;7394585;19;20145;-86
2023/04/26 14:08:58;;;;;;;0.68;0.68;;;;;;;;;;7391776;19;20548;-87
2023/04/26 14:11:25;;;;;;;0.50;0.50;;;;;;;;;;7391924;19;20132;-86
2023/04/26 14:13:54;;;;;;;0.70;0.70;;;;;;;;;;7389259;19;20538;-86
2023/04/26 14:16:24;;;;;;;0.40;0.40;;;;;;;;;;7392258;19;20137;-86
2023/04/26 14:18:51;;;;;;;0.50;0.50;;;;;;;;;;7390114;19;20135;-86
2023/04/26 14:21:18;;;;;;;0.77;0.77;;;;;;;;;;7391200;19;20145;-86
2023/04/26 14:23:45;;;;;;;0.75;0.60;;;;;;;;;;7391390;19;20196;-86
2023/04/26 14:26:11;;;;;;;0.45;0.45;;;;;;;;;;7392117;19;20129;-86
2023/04/26 14:28:38;;;;;;;0.88;0.88;;;;;;;;;;7389673;19;20606;-86
2023/04/26 14:31:05;;;;;;;0.77;0.77;;;;;;;;;;7390895;19;20165;-86
2023/04/26 14:33:31;;;;;;;1.85;0.88;;;;;;;;;;7390034;19;20172;-86
2023/04/26 14:35:58;;;;;;;3.00;0.70;;;;;;;;;;7390664;19;20129;-86
2023/04/26 14:38:25;;;;;;;0.40;0.40;;;;;;;;;;7388945;19;20182;-87
2023/04/26 14:40:52;;;;;;;0.57;0.57;;;;;;;;;;7389855;19;20169;-87
2023/04/26 14:43:18;;;;;;;0.40;0.40;;;;;;;;;;7389360;19;20141;-86
2023/04/26 14:45:45;;;;;;;0.50;0.50;;;;;;;;;;7391178;19;20129;-86
2023/04/26 14:48:11;;;;;;;0.60;0.60;;;;;;;;;;7391977;19;20620;-86
2023/04/26 14:50:38;;;;;;;0.63;0.63;;;;;;;;;;7391325;19;20665;-86
2023/04/26 14:53:05;;;;;;;0.30;0.30;;;;;;;;;;7391220;19;20133;-86
2023/04/26 14:55:33;;;;;;;0.40;0.40;;;;;;;;;;7392176;19;20137;-86
2023/04/26 14:57:59;;;;;;;0.40;0.40;;;;;;;;;;7391410;19;20133;-86
2023/04/26 15:00:29;;;;;;;0.73;0.73;;;;;;;;;;7394673;19;20161;-85
2023/04/26 15:02:55;;;;;;;0.40;0.40;;;;;;;;;;7391303;19;20145;-86
2023/04/26 15:05:23;;;;;;;0.60;0.60;;;;;;;;;;7388768;19;20148;-86
2023/04/26 15:07:50;;;;;;;0.45;0.45;;;;;;;;;;7384899;19;20153;-86
2023/04/26 15:10:17;;;;;;;0.73;0.73;;;;;;;;;;7387158;19;20141;-86
2023/04/26 15:12:44;;;;;;;0.77;0.77;;;;;;;;;;7384991;19;20136;-86
2023/04/26 15:15:11;;;;;;;0.47;0.47;;;;;;;;;;7386219;19;20149;-86
2023/04/26 15:17:38;;;;;;;0.75;0.75;;;;;;;;;;7388019;19;20425;-86
2023/04/26 15:20:05;;;;;;;0.55;0.55;;;;;;;;;;7386370;19;20137;-87
2023/04/26 15:22:32;;;;;;;1.50;0.90;;;;;;;;;;7385739;19;20139;-87
2023/04/26 15:25:05;;;;;;;0.40;0.40;;;;;;;;;;7388674;19;20158;-89
2023/04/26 15:27:36;;;;;;;0.45;0.45;;;;;;;;;;7394817;19;20151;-90
2023/04/26 15:30:03;;;;;;;0.40;0.40;;;;;;;;;;7397584;19;20133;-88
2023/04/26 15:32:32;;;;;;;0.30;0.30;;;;;;;;;;7393312;19;20649;-85
2023/04/26 15:34:59;;;;;;;0.50;0.50;;;;;;;;;;7396371;19;20201;-90
2023/04/26 15:38:08;;;;;;;0.60;0.60;;;;;;;;;;7395113;19;20141;-88
2023/04/26 15:41:52;;;;;;;0.30;0.30;;;;;;;;;;7399983;19;20129;-88
2023/04/26 15:45:00;;;;;;;0.40;0.40;;;;;;;;;;7398954;19;20128;-88
2023/04/26 15:48:19;;;;;;;0.90;0.90;;;;;;;;;;7413782;19;20129;-89
2023/04/26 15:51:04;;;;;;;0.57;0.57;;;;;;;;;;7409169;19;20561;-88
2023/04/26 16:02:52;;;;;;;0.47;0.47;;;;;;;;;;7393208;19;20135;-86
2023/04/26 16:05:19;;;;;;;0.85;0.82;;;;;;;;;;7388135;19;20539;-87
2023/04/26 16:07:45;;;;;;;0.45;0.45;;;;;;;;;;7390835;19;20137;-86
2023/04/26 16:10:12;;;;;;;1.27;1.13;;;;;;;;;;7391630;19;20129;-86
2023/04/26 16:12:40;;;;;;;0.50;0.50;;;;;;;;;;7395688;19;20633;-86